createdAt,value
2019-03-06T00:00:56.265Z,96702.03
2019-03-06T00:03:29.331Z,96695.20
2019-03-06T00:06:00.745Z,96689.48
2019-03-06T00:08:31.455Z,96687.98
2019-03-06T00:11:02.799Z,96682.80
2019-03-06T00:13:34.600Z,96678.18
2019-03-06T00:16:05.854Z,96668.69
2019-03-06T00:18:37.006Z,96678.71
2019-03-06T00:21:45.711Z,96674.17
2019-03-06T00:25:03.360Z,96671.16
2019-03-06T00:27:34.570Z,96665.55
2019-03-06T00:30:08.364Z,96660.20
2019-03-06T00:32:39.896Z,96659.02
2019-03-06T00:35:15.798Z,96656.25
2019-03-06T00:37:46.830Z,96672.48
2019-03-06T00:40:44.104Z,96668.44
2019-03-06T00:43:15.802Z,96665.70
2019-03-06T00:45:47.318Z,96657.68
2019-03-06T00:48:19.404Z,96658.64
2019-03-06T00:50:50.695Z,96659.91
2019-03-06T00:53:22.602Z,96658.59
2019-03-06T00:55:53.566Z,96660.52
2019-03-06T00:58:25.194Z,96666.99
2019-03-06T01:00:56.315Z,96667.58
2019-03-06T01:03:27.663Z,96661.00
2019-03-06T01:05:59.417Z,96663.78
2019-03-06T01:08:31.811Z,96658.89
2019-03-06T01:11:05.778Z,96654.55
2019-03-06T01:13:40.326Z,96653.66
2019-03-06T01:16:14.671Z,96649.17
2019-03-06T01:18:46.625Z,96646.30
2019-03-06T01:21:18.489Z,96644.78
2019-03-06T01:23:59.418Z,96654.78
2019-03-06T01:26:30.758Z,96650.98
2019-03-06T01:29:01.833Z,96644.38
2019-03-06T01:31:33.650Z,96640.89
2019-03-06T01:34:23.513Z,96634.29
2019-03-06T01:37:28.079Z,96634.80
2019-03-06T01:40:23.238Z,96622.77
2019-03-06T01:43:15.536Z,96619.98
2019-03-06T01:45:46.694Z,96621.10
2019-03-06T01:48:17.927Z,96616.09
2019-03-06T01:50:49.277Z,96606.14
2019-03-06T01:53:20.915Z,96602.97
2019-03-06T01:55:52.010Z,96613.02
2019-03-06T01:58:22.656Z,96607.06
2019-03-06T02:00:54.843Z,96609.61
2019-03-06T03:02:35.526Z,96510.82
2019-03-06T03:05:16.292Z,96507.98
2019-03-06T03:07:47.014Z,96506.42
2019-03-06T03:10:18.677Z,96507.27
2019-03-06T03:12:49.382Z,96512.63
2019-03-06T03:15:20.992Z,96514.12
2019-03-06T03:17:52.475Z,96518.61
2019-03-06T03:20:22.765Z,96512.11
2019-03-06T03:22:54.189Z,96509.72
2019-03-06T03:25:25.229Z,96510.92
2019-03-06T03:28:08.193Z,96513.91
2019-03-06T03:30:39.660Z,96514.88
2019-03-06T03:33:10.663Z,96520.75
2019-03-06T03:35:42.614Z,96524.41
2019-03-06T03:38:14.053Z,96531.63
2019-03-06T03:40:45.420Z,96517.61
2019-03-06T03:43:16.538Z,96521.14
2019-03-06T03:45:48.532Z,96526.72
2019-03-06T03:48:19.575Z,96526.02
2019-03-06T03:50:52.430Z,96521.02
2019-03-06T03:53:23.898Z,96524.06
2019-03-06T03:55:54.233Z,96517.74
2019-03-06T03:58:25.465Z,96511.56
2019-03-06T04:00:57.253Z,96519.28
2019-03-06T04:03:28.459Z,96514.05
2019-03-06T04:06:00.164Z,96513.73
2019-03-06T04:08:31.656Z,96520.45
2019-03-06T04:11:04.202Z,96521.23
2019-03-06T04:13:35.946Z,96526.98
2019-03-06T04:16:06.583Z,96527.12
2019-03-06T04:18:37.999Z,96527.98
2019-03-06T04:21:09.951Z,96524.81
2019-03-06T04:23:41.604Z,96520.55
2019-03-06T04:26:12.994Z,96518.89
2019-03-06T04:28:45.535Z,96520.34
2019-03-06T04:31:16.474Z,96519.36
2019-03-06T04:33:47.835Z,96526.61
2019-03-06T04:36:19.868Z,96518.15
2019-03-06T04:38:51.219Z,96518.63
2019-03-06T04:41:22.756Z,96518.04
2019-03-06T04:43:54.606Z,96512.15
2019-03-06T04:46:25.304Z,96514.39
2019-03-06T04:48:56.750Z,96524.34
2019-03-06T04:51:27.865Z,96521.15
2019-03-06T04:53:59.624Z,96519.47
2019-03-06T04:56:31.454Z,96519.75
2019-03-06T04:59:03.074Z,96512.59
2019-03-06T05:01:34.773Z,96492.09
2019-03-06T05:04:05.504Z,96475.35
2019-03-06T05:06:37.240Z,96481.70
2019-03-06T05:09:09.837Z,96477.81
2019-03-06T05:11:41.117Z,96479.33
2019-03-06T05:14:12.802Z,96488.98
2019-03-06T05:16:52.563Z,96490.67
2019-03-06T05:19:24.066Z,96497.86
2019-03-06T05:21:55.125Z,96495.44
2019-03-06T05:24:26.236Z,96491.70
2019-03-06T05:26:57.490Z,96491.69
2019-03-06T05:29:28.841Z,96496.93
2019-03-06T05:32:28.187Z,96494.85
2019-03-06T05:35:00.371Z,96500.80
2019-03-06T05:37:55.309Z,96484.11
2019-03-06T05:40:26.065Z,96477.92
2019-03-06T05:42:57.577Z,96472.02
2019-03-06T05:46:03.716Z,96477.47
2019-03-06T05:48:34.446Z,96473.59
2019-03-06T05:51:05.793Z,96468.14
2019-03-06T05:53:37.364Z,96468.72
2019-03-06T05:56:08.310Z,96467.81
2019-03-06T05:58:40.103Z,96467.98
2019-03-06T06:01:11.547Z,96465.92
2019-03-06T06:03:42.873Z,96465.47
2019-03-06T06:06:14.643Z,96464.06
2019-03-06T06:08:46.374Z,96470.73
2019-03-06T06:11:17.777Z,96467.78
2019-03-06T06:13:48.413Z,96472.58
2019-03-06T06:16:19.438Z,96476.31
2019-03-06T06:18:50.574Z,96458.55
2019-03-06T06:21:47.110Z,96457.86
2019-03-06T06:24:28.869Z,96473.61
2019-03-06T06:27:00.598Z,96462.13
2019-03-06T06:29:31.919Z,96465.39
2019-03-06T06:32:03.378Z,96470.13
2019-03-06T06:34:34.724Z,96459.89
2019-03-06T06:37:05.041Z,96460.03
2019-03-06T06:39:36.462Z,96467.42
2019-03-06T06:42:06.848Z,96455.28
2019-03-06T06:44:38.437Z,96450.86
2019-03-06T06:47:09.808Z,96447.56
2019-03-06T06:49:42.976Z,96447.84
2019-03-06T06:53:17.313Z,96447.04
2019-03-06T06:57:00.319Z,96436.57
2019-03-06T07:00:09.468Z,96426.20
2019-03-06T07:04:04.167Z,96420.89
2019-03-06T07:07:03.482Z,96408.77
2019-03-06T07:10:05.353Z,96407.80
2019-03-06T07:12:52.452Z,96410.13
2019-03-06T07:15:41.967Z,96402.06
2019-03-06T07:18:24.452Z,96395.05
2019-03-06T07:21:16.842Z,96398.45
2019-03-06T07:24:00.925Z,96395.59
2019-03-06T07:26:49.408Z,96388.77
2019-03-06T07:29:32.246Z,96394.63
2019-03-06T07:32:20.896Z,96391.15
2019-03-06T07:35:59.367Z,96397.11
2019-03-06T07:38:30.003Z,96392.02
2019-03-06T07:41:09.492Z,96400.00
2019-03-06T07:44:29.785Z,96398.20
2019-03-06T07:47:13.907Z,96395.15
2019-03-06T07:50:00.395Z,96392.52
2019-03-06T07:52:56.410Z,96395.55
2019-03-06T07:55:33.994Z,96388.70
2019-03-06T07:59:05.973Z,96382.63
2019-03-06T08:01:48.950Z,96386.56
2019-03-06T08:04:20.341Z,96382.48
2019-03-06T08:07:36.812Z,96368.72
2019-03-06T08:10:14.620Z,96360.80
2019-03-06T08:12:55.930Z,96368.11
2019-03-06T08:15:45.328Z,96367.56
2019-03-06T08:18:29.566Z,96360.15
2019-03-06T08:21:31.514Z,96356.25
2019-03-06T08:24:42.487Z,96359.06
2019-03-06T08:27:14.442Z,96361.04
2019-03-06T08:29:46.204Z,96352.27
2019-03-06T08:32:30.219Z,96355.05
2019-03-06T08:35:01.205Z,96343.07
2019-03-06T08:37:32.347Z,96341.19
2019-03-06T08:40:03.091Z,96346.86
2019-03-06T08:42:33.827Z,96334.13
2019-03-06T08:45:06.117Z,96330.66
2019-03-06T08:47:56.502Z,96331.62
2019-03-06T08:50:42.025Z,96318.75
2019-03-06T08:53:31.728Z,96316.14
2019-03-06T08:56:09.596Z,96302.72
2019-03-06T08:59:08.688Z,96298.31
2019-03-06T09:02:04.870Z,96299.08
2019-03-06T09:04:54.618Z,96284.13
2019-03-06T09:07:47.230Z,96276.66
2019-03-06T09:10:34.055Z,96283.50
2019-03-06T09:13:24.348Z,96273.58
2019-03-06T09:16:14.375Z,96271.36
2019-03-06T09:18:59.106Z,96265.50
2019-03-06T09:21:38.801Z,96262.66
2019-03-06T09:24:27.558Z,96262.64
2019-03-06T09:27:10.555Z,96263.70
2019-03-06T09:30:03.637Z,96266.07
2019-03-06T09:32:54.146Z,96260.80
2019-03-06T09:35:53.971Z,96253.68
2019-03-06T09:38:42.354Z,96237.61
2019-03-06T09:41:31.643Z,96244.95
2019-03-06T09:44:30.437Z,96235.47
2019-03-06T09:47:35.065Z,96217.81
2019-03-06T09:50:32.432Z,96219.37
2019-03-06T09:53:19.618Z,96217.91
2019-03-06T09:56:09.589Z,96217.88
2019-03-06T09:58:56.930Z,96219.30
2019-03-06T10:01:52.837Z,96217.66
2019-03-06T10:05:19.066Z,96203.55
2019-03-06T10:08:32.265Z,96198.64
2019-03-06T10:11:43.983Z,96198.61
2019-03-06T10:14:45.813Z,96186.31
2019-03-06T10:18:08.002Z,96181.19
2019-03-06T10:21:18.202Z,96175.52
2019-03-06T10:24:21.108Z,96180.63
2019-03-06T10:27:04.354Z,96171.73
2019-03-06T10:30:23.225Z,96179.44
2019-03-06T10:33:04.513Z,96159.63
2019-03-06T10:36:05.555Z,96160.13
2019-03-06T10:38:56.401Z,96164.66
2019-03-06T10:41:34.765Z,96162.73
2019-03-06T10:44:18.592Z,96152.78
2019-03-06T10:47:14.742Z,96153.62
2019-03-06T10:49:56.699Z,96141.36
2019-03-06T10:52:49.509Z,96133.09
2019-03-06T10:55:53.752Z,96126.29
2019-03-06T10:58:57.520Z,96119.37
2019-03-06T11:01:43.369Z,96126.53
2019-03-06T11:05:10.174Z,96114.85
2019-03-06T11:07:55.618Z,96106.97
2019-03-06T11:10:56.933Z,96101.55
2019-03-06T11:13:49.013Z,96094.17
2019-03-06T11:16:45.510Z,96088.81
2019-03-06T11:19:27.123Z,96089.30
2019-03-06T11:22:01.603Z,96084.02
2019-03-06T11:24:36.267Z,96075.76
2019-03-06T11:27:08.452Z,96076.31
2019-03-06T11:29:40.181Z,96072.28
2019-03-06T11:32:17.012Z,96061.94
2019-03-06T11:34:51.333Z,96057.52
2019-03-06T11:40:43.204Z,96046.20
2019-03-06T11:43:17.912Z,96040.56
2019-03-06T11:45:51.529Z,96033.98
2019-03-06T11:48:23.751Z,96029.63
2019-03-06T11:50:58.607Z,96011.02
2019-03-06T11:53:32.929Z,96004.81
2019-03-06T11:56:06.341Z,96004.30
2019-03-06T11:58:38.546Z,95992.30
2019-03-06T12:01:18.394Z,95979.38
2019-03-06T12:03:55.130Z,95981.14
2019-03-06T12:06:31.905Z,95968.47
2019-03-06T12:09:28.376Z,95962.69
2019-03-06T12:12:04.484Z,95962.14
2019-03-06T12:14:44.982Z,95957.12
2019-03-06T12:17:24.007Z,95957.56
2019-03-06T12:19:55.394Z,95945.31
2019-03-06T12:22:26.858Z,95935.67
2019-03-06T12:24:57.882Z,95937.84
2019-03-06T12:27:29.658Z,95932.88
2019-03-06T12:30:03.652Z,95927.37
2019-03-06T12:32:35.198Z,95915.48
2019-03-06T12:35:05.833Z,95916.63
2019-03-06T12:37:47.154Z,95913.53
2019-03-06T12:40:19.966Z,95909.16
2019-03-06T12:42:52.215Z,95918.70
2019-03-06T12:45:23.691Z,95916.00
2019-03-06T12:48:16.383Z,95913.22
2019-03-06T12:50:55.093Z,95903.83
2019-03-06T12:53:30.830Z,95893.58
2019-03-06T12:56:01.893Z,95897.98
2019-03-06T12:58:36.425Z,95901.97
2019-03-06T13:01:19.701Z,95887.45
2019-03-06T13:03:50.971Z,95875.00
2019-03-06T13:06:24.876Z,95870.44
2019-03-06T13:08:56.640Z,95880.95
2019-03-06T13:11:51.054Z,95872.44
2019-03-06T13:14:45.934Z,95868.97
2019-03-06T13:17:20.588Z,95863.20
2019-03-06T13:19:54.040Z,95849.65
2019-03-06T13:22:30.590Z,95849.38
2019-03-06T13:25:08.954Z,95842.96
2019-03-06T13:27:54.389Z,95843.19
2019-03-06T13:30:30.808Z,95846.67
2019-03-06T13:33:27.623Z,95854.08
2019-03-06T13:36:01.688Z,95846.11
2019-03-06T13:38:34.657Z,95846.19
2019-03-06T13:41:05.462Z,95838.81
2019-03-06T13:43:44.609Z,95833.05
2019-03-06T13:46:15.490Z,95829.28
2019-03-06T13:48:47.365Z,95825.73
2019-03-06T13:51:18.518Z,95830.36
2019-03-06T13:53:52.015Z,95814.17
2019-03-06T13:56:40.586Z,95822.05
2019-03-06T13:59:12.788Z,95824.70
2019-03-06T14:01:44.941Z,95815.08
2019-03-06T14:04:15.870Z,95810.78
2019-03-06T14:06:46.411Z,95812.91
2019-03-06T14:09:17.802Z,95818.58
2019-03-06T14:11:58.503Z,95811.98
2019-03-06T14:14:38.749Z,95814.45
2019-03-06T14:17:13.310Z,95816.09
2019-03-06T14:19:44.433Z,95816.60
2019-03-06T14:22:15.127Z,95813.59
2019-03-06T14:24:46.759Z,95804.17
2019-03-06T14:27:18.692Z,95808.39
2019-03-06T14:29:58.107Z,95808.81
2019-03-06T14:32:30.234Z,95819.05
2019-03-06T14:35:01.306Z,95822.48
2019-03-06T14:37:34.267Z,95811.97
2019-03-06T14:40:09.740Z,95816.52
2019-03-06T14:42:39.097Z,95812.47
2019-03-06T14:45:12.332Z,95798.38
2019-03-06T14:47:43.176Z,95797.48
2019-03-06T14:50:14.259Z,95803.98
2019-03-06T14:52:45.755Z,95796.33
2019-03-06T14:55:16.909Z,95796.80
2019-03-06T14:57:48.513Z,95797.75
2019-03-06T15:00:20.128Z,95792.89
2019-03-06T15:02:51.213Z,95787.61
2019-03-06T15:05:22.557Z,95788.44
2019-03-06T15:07:53.543Z,95789.56
2019-03-06T15:10:25.722Z,95790.41
2019-03-06T15:12:56.654Z,95791.14
2019-03-06T15:15:28.101Z,95784.72
2019-03-06T15:18:16.905Z,95781.85
2019-03-06T15:20:47.552Z,95774.52
2019-03-06T15:23:18.736Z,95777.13
2019-03-06T15:25:49.691Z,95778.12
2019-03-06T15:28:22.582Z,95775.16
2019-03-06T15:30:53.958Z,95780.94
2019-03-06T15:33:25.336Z,95775.33
2019-03-06T15:35:57.059Z,95773.51
2019-03-06T15:38:28.679Z,95768.31
2019-03-06T15:40:59.722Z,95766.30
2019-03-06T15:43:31.238Z,95755.14
2019-03-06T15:46:01.889Z,95747.34
2019-03-06T15:48:35.744Z,95738.86
2019-03-06T15:51:07.464Z,95741.86
2019-03-06T15:53:38.380Z,95749.50
2019-03-06T15:56:09.754Z,95747.55
2019-03-06T15:58:41.708Z,95738.41
2019-03-06T16:01:12.345Z,95738.05
2019-03-06T16:03:44.271Z,95740.25
2019-03-06T16:06:20.289Z,95747.86
2019-03-06T16:08:49.021Z,95747.87
2019-03-06T16:11:23.610Z,95741.82
2019-03-06T16:13:55.128Z,95749.69
2019-03-06T16:16:25.851Z,95757.77
2019-03-06T16:18:57.326Z,95748.16
2019-03-06T16:21:28.389Z,95749.80
2019-03-06T16:24:03.275Z,95752.48
2019-03-06T16:26:34.294Z,95751.27
2019-03-06T16:29:05.534Z,95746.44
2019-03-06T16:31:38.757Z,95744.02
2019-03-06T16:34:09.905Z,95748.07
2019-03-06T16:36:44.611Z,95744.89
2019-03-06T16:39:18.590Z,95748.46
2019-03-06T16:41:50.330Z,95737.11
2019-03-06T16:44:20.946Z,95730.26
2019-03-06T16:46:52.229Z,95739.19
2019-03-06T16:49:22.908Z,95746.05
2019-03-06T16:52:16.784Z,95762.50
2019-03-06T16:54:47.848Z,95759.81
2019-03-06T16:57:19.057Z,95758.24
2019-03-06T16:59:50.418Z,95751.59
2019-03-06T17:02:22.026Z,95757.02
2019-03-06T17:04:53.426Z,95750.83
2019-03-06T17:07:26.707Z,95756.59
2019-03-06T17:09:58.499Z,95743.50
2019-03-06T17:12:29.592Z,95729.59
2019-03-06T17:15:01.058Z,95719.58
2019-03-06T17:17:33.128Z,95704.33
2019-03-06T17:20:03.830Z,95696.20
2019-03-06T17:22:35.094Z,95687.70
2019-03-06T17:25:09.705Z,95662.72
2019-03-06T17:27:58.993Z,95652.72
2019-03-06T17:30:32.101Z,95665.03
2019-03-06T17:33:10.490Z,95673.75
2019-03-06T17:35:49.616Z,95673.42
2019-03-06T17:38:20.988Z,95663.88
2019-03-06T17:40:56.460Z,95668.34
2019-03-06T17:43:29.119Z,95660.25
2019-03-06T17:46:00.109Z,95651.15
2019-03-06T17:48:34.197Z,95664.45
2019-03-06T17:51:05.181Z,95674.09
2019-03-06T17:53:36.266Z,95674.81
2019-03-06T17:56:07.032Z,95674.67
2019-03-06T17:58:37.697Z,95668.50
2019-03-06T18:01:18.073Z,95667.53
2019-03-06T18:04:14.792Z,95676.48
2019-03-06T18:06:45.663Z,95673.75
2019-03-06T18:09:17.194Z,95664.99
2019-03-06T18:11:48.214Z,95661.19
2019-03-06T18:14:21.547Z,95649.23
2019-03-06T18:16:52.863Z,95644.19
2019-03-06T18:19:23.901Z,95649.45
2019-03-06T18:21:55.457Z,95648.23
2019-03-06T18:24:28.417Z,95653.16
2019-03-06T18:27:00.509Z,95638.86
2019-03-06T18:29:32.785Z,95636.91
2019-03-06T18:32:03.901Z,95639.77
2019-03-06T18:34:34.856Z,95647.09
2019-03-06T18:37:06.571Z,95639.20
2019-03-06T18:39:37.907Z,95645.11
2019-03-06T18:42:08.563Z,95636.41
2019-03-06T18:44:39.931Z,95633.48
2019-03-06T18:47:10.547Z,95633.39
2019-03-06T18:49:42.058Z,95621.75
2019-03-06T18:52:15.331Z,95622.69
2019-03-06T18:54:48.537Z,95620.73
2019-03-06T18:57:20.666Z,95619.92
2019-03-06T18:59:53.094Z,95615.12
2019-03-06T19:02:24.593Z,95606.78
2019-03-06T19:04:58.880Z,95610.67
2019-03-06T19:07:30.298Z,95605.22
2019-03-06T19:10:01.304Z,95602.17
2019-03-06T19:12:36.273Z,95594.22
2019-03-06T19:15:09.078Z,95579.34
2019-03-06T19:17:41.125Z,95582.64
2019-03-06T19:20:14.925Z,95582.89
2019-03-06T19:22:48.919Z,95573.80
2019-03-06T19:25:20.831Z,95572.73
2019-03-06T19:27:53.884Z,95566.72
2019-03-06T19:30:24.576Z,95577.14
2019-03-06T19:32:56.753Z,95560.92
2019-03-06T19:35:39.078Z,95563.63
2019-03-06T19:38:10.547Z,95558.98
2019-03-06T19:40:42.177Z,95561.38
2019-03-06T19:43:13.187Z,95567.38
2019-03-06T19:45:44.165Z,95569.53
2019-03-06T19:48:18.803Z,95567.68
2019-03-06T19:50:51.608Z,95555.42
2019-03-06T19:53:22.562Z,95569.47
2019-03-06T19:55:54.208Z,95547.23
2019-03-06T19:58:29.923Z,95549.19
2019-03-06T20:01:02.687Z,95547.33
2019-03-06T20:03:35.939Z,95540.39
2019-03-06T20:06:17.050Z,95533.02
2019-03-06T20:08:49.671Z,95540.22
2019-03-06T20:11:22.086Z,95549.71
2019-03-06T20:14:17.874Z,95543.70
2019-03-06T20:16:48.774Z,95547.75
2019-03-06T20:19:22.702Z,95554.44
2019-03-06T20:21:54.048Z,95542.74
2019-03-06T20:24:25.910Z,95538.11
2019-03-06T20:26:57.032Z,95521.63
2019-03-06T20:29:28.947Z,95515.62
2019-03-06T20:32:00.411Z,95509.50
2019-03-06T20:34:32.407Z,95511.86
2019-03-06T20:37:06.233Z,95499.76
2019-03-06T20:39:46.221Z,95501.14
2019-03-06T20:42:17.547Z,95503.13
2019-03-06T20:44:49.444Z,95497.97
2019-03-06T20:47:23.610Z,95496.02
2019-03-06T20:49:57.874Z,95494.52
2019-03-06T20:52:30.334Z,95493.28
2019-03-06T20:55:05.749Z,95488.21
2019-03-06T20:57:40.427Z,95480.20
2019-03-06T21:00:24.799Z,95487.47
2019-03-06T21:02:59.755Z,95476.92
2019-03-06T21:05:31.453Z,95460.55
2019-03-06T21:08:05.273Z,95462.38
2019-03-06T21:10:38.335Z,95462.45
2019-03-06T21:13:09.352Z,95448.55
2019-03-06T21:15:42.328Z,95456.00
2019-03-06T21:18:14.428Z,95453.69
2019-03-06T21:20:49.486Z,95453.09
2019-03-06T21:23:21.920Z,95452.40
2019-03-06T21:25:52.953Z,95440.80
2019-03-06T21:28:30.860Z,95424.36
2019-03-06T21:31:01.939Z,95418.55
2019-03-06T21:33:32.691Z,95423.61
2019-03-06T21:36:04.266Z,95447.48
2019-03-06T21:38:38.245Z,95449.99
2019-03-06T21:41:33.490Z,95447.66
2019-03-06T21:44:09.851Z,95452.63
2019-03-06T21:46:52.634Z,95456.31
2019-03-06T21:49:27.108Z,95464.58
2019-03-06T21:52:03.766Z,95455.95
2019-03-06T21:54:41.591Z,95461.20
2019-03-06T21:57:12.651Z,95459.14
2019-03-06T21:59:46.212Z,95472.98
2019-03-06T22:02:16.879Z,95446.58
2019-03-06T22:04:49.962Z,95422.36
2019-03-06T22:07:24.214Z,95397.80
2019-03-06T22:09:57.091Z,95411.27
2019-03-06T22:12:28.516Z,95410.09
2019-03-06T22:14:59.377Z,95423.48
2019-03-06T22:17:41.954Z,95414.64
2019-03-06T22:20:14.020Z,95422.95
2019-03-06T22:22:46.877Z,95424.30
2019-03-06T22:25:18.054Z,95425.44
2019-03-06T22:27:49.554Z,95427.94
2019-03-06T22:30:22.405Z,95414.18
2019-03-06T22:32:53.559Z,95428.84
2019-03-06T22:35:23.931Z,95422.66
2019-03-06T22:37:57.265Z,95423.86
2019-03-06T22:40:28.326Z,95435.25
2019-03-06T22:43:00.106Z,95429.47
2019-03-06T22:45:31.387Z,95426.19
2019-03-06T22:48:04.153Z,95422.86
2019-03-06T22:50:36.810Z,95420.30
2019-03-06T22:53:08.847Z,95411.66
2019-03-06T22:55:42.076Z,95412.78
2019-03-06T22:58:13.406Z,95414.81
2019-03-06T23:00:59.252Z,95411.66
2019-03-06T23:03:31.855Z,95401.22
2019-03-06T23:06:02.844Z,95410.28
2019-03-06T23:08:34.443Z,95404.27
2019-03-06T23:11:06.061Z,95399.60
2019-03-06T23:13:45.740Z,95406.89
2019-03-06T23:16:16.831Z,95411.26
2019-03-06T23:18:50.677Z,95415.84
2019-03-06T23:21:21.681Z,95417.09
2019-03-06T23:23:53.042Z,95412.63
2019-03-06T23:26:24.459Z,95409.54
2019-03-06T23:28:55.184Z,95401.08
2019-03-06T23:31:26.502Z,95385.13
2019-03-06T23:33:58.078Z,95378.92
2019-03-06T23:36:32.322Z,95368.09
2019-03-06T23:39:03.499Z,95361.11
2019-03-06T23:41:41.410Z,95365.42
2019-03-06T23:44:35.534Z,95364.98
2019-03-06T23:47:28.498Z,95357.80
2019-03-06T23:50:01.394Z,95360.22
2019-03-06T23:52:56.527Z,95356.80
2019-03-06T23:55:29.890Z,95352.08
2019-03-06T23:58:10.259Z,95363.95
